createdAt,value
2023-03-14T00:00:14.142Z,99.24
2023-03-14T00:02:40.984Z,99.53
2023-03-14T00:05:08.315Z,100.00
2023-03-14T00:07:37.416Z,100.00
2023-03-14T00:10:06.179Z,100.00
2023-03-14T00:12:33.022Z,100.00
2023-03-14T00:15:01.156Z,100.00
2023-03-14T00:17:28.230Z,100.00
2023-03-14T00:19:54.955Z,100.00
2023-03-14T00:22:22.233Z,99.46
2023-03-14T00:24:48.955Z,99.38
2023-03-14T00:27:15.391Z,98.60
2023-03-14T00:29:43.597Z,99.46
2023-03-14T00:32:10.015Z,99.70
2023-03-14T00:34:36.460Z,100.00
2023-03-14T00:37:02.919Z,100.00
2023-03-14T00:39:29.337Z,100.00
2023-03-14T00:41:55.759Z,100.00
2023-03-14T00:44:22.174Z,100.00
2023-03-14T00:46:48.748Z,100.00
2023-03-14T00:49:15.245Z,100.00
2023-03-14T00:51:41.667Z,100.00
2023-03-14T00:54:08.217Z,100.00
2023-03-14T00:56:34.765Z,99.87
2023-03-14T00:59:01.258Z,99.83
2023-03-14T01:01:28.122Z,99.94
2023-03-14T01:03:55.895Z,99.34
2023-03-14T01:06:24.746Z,99.61
2023-03-14T01:08:51.928Z,99.32
2023-03-14T01:11:21.873Z,99.19
2023-03-14T01:13:48.645Z,99.04
2023-03-14T01:16:15.371Z,99.34
2023-03-14T01:18:44.433Z,99.67
2023-03-14T01:21:19.639Z,99.10
2023-03-14T01:23:47.027Z,100.00
2023-03-14T01:26:16.205Z,99.96
2023-03-14T01:28:42.703Z,100.00
2023-03-14T01:31:11.088Z,100.00
2023-03-14T01:33:37.883Z,100.00
2023-03-14T01:36:04.889Z,100.00
2023-03-14T01:38:32.631Z,100.00
2023-03-14T01:40:59.608Z,100.00
2023-03-14T01:43:26.369Z,100.00
2023-03-14T01:46:06.267Z,100.00
2023-03-14T01:48:43.869Z,100.00
2023-03-14T01:51:13.226Z,100.00
2023-03-14T01:53:40.254Z,100.00
2023-03-14T01:56:07.882Z,100.00
2023-03-14T01:58:37.812Z,100.00
2023-03-14T02:01:04.836Z,100.00
2023-03-14T02:03:32.522Z,100.00
2023-03-14T02:06:02.510Z,100.00
2023-03-14T02:08:28.975Z,100.00
2023-03-14T02:10:55.423Z,100.00
2023-03-14T02:13:22.542Z,100.00
2023-03-14T02:15:49.507Z,100.00
2023-03-14T02:18:17.468Z,100.00
2023-03-14T02:21:01.620Z,100.00
2023-03-14T02:23:49.831Z,100.00
2023-03-14T02:26:20.921Z,100.00
2023-03-14T02:28:47.554Z,100.00
2023-03-14T02:31:14.635Z,100.00
2023-03-14T02:33:41.223Z,100.00
2023-03-14T02:36:11.838Z,100.00
2023-03-14T02:39:04.216Z,100.00
2023-03-14T02:41:31.218Z,100.00
2023-03-14T02:43:57.709Z,100.00
2023-03-14T02:46:24.277Z,100.00
2023-03-14T02:48:57.352Z,100.00
2023-03-14T02:51:24.874Z,100.00
2023-03-14T02:53:51.299Z,100.00
2023-03-14T02:56:17.951Z,100.00
2023-03-14T02:58:44.400Z,100.00
2023-03-14T03:01:10.893Z,100.00
2023-03-14T03:03:37.435Z,100.00
2023-03-14T03:06:04.178Z,100.00
2023-03-14T03:08:30.870Z,100.00
2023-03-14T03:10:58.404Z,100.00
2023-03-14T03:13:24.944Z,100.00
2023-03-14T03:15:51.413Z,100.00
2023-03-14T03:18:17.882Z,100.00
2023-03-14T03:20:44.431Z,100.00
2023-03-14T03:23:10.952Z,100.00
2023-03-14T03:25:37.442Z,100.00
2023-03-14T03:28:08.533Z,100.00
2023-03-14T03:30:39.409Z,100.00
2023-03-14T03:33:05.864Z,100.00
2023-03-14T03:35:32.736Z,100.00
2023-03-14T03:37:59.312Z,100.00
2023-03-14T03:40:25.736Z,100.00
2023-03-14T03:42:52.423Z,100.00
2023-03-14T03:45:18.875Z,100.00
2023-03-14T03:47:45.322Z,100.00
2023-03-14T03:50:11.814Z,100.00
2023-03-14T03:52:38.289Z,100.00
2023-03-14T03:55:05.130Z,100.00
2023-03-14T03:57:31.683Z,100.00
2023-03-14T03:59:58.133Z,100.00
2023-03-14T04:02:24.603Z,100.00
2023-03-14T04:04:51.446Z,100.00
2023-03-14T04:07:18.001Z,100.00
2023-03-14T04:09:44.559Z,100.00
2023-03-14T04:12:12.104Z,100.00
2023-03-14T04:14:38.867Z,100.00
2023-03-14T04:17:05.285Z,100.00
2023-03-14T04:19:31.817Z,100.00
2023-03-14T04:21:58.277Z,100.00
2023-03-14T04:24:24.777Z,100.00
2023-03-14T04:26:51.315Z,100.00
2023-03-14T04:29:17.811Z,100.00
2023-03-14T04:31:44.256Z,100.00
2023-03-14T04:34:10.739Z,100.00
2023-03-14T04:36:39.586Z,100.00
2023-03-14T04:39:06.546Z,100.00
2023-03-14T04:41:33.133Z,100.00
2023-03-14T04:43:59.595Z,100.00
2023-03-14T04:46:26.153Z,100.00
2023-03-14T04:48:52.689Z,100.00
2023-03-14T04:51:19.183Z,100.00
2023-03-14T04:53:45.618Z,100.00
2023-03-14T04:56:13.907Z,100.00
2023-03-14T04:58:40.654Z,100.00
2023-03-14T05:01:07.591Z,100.00
2023-03-14T05:03:34.128Z,100.00
2023-03-14T05:06:01.751Z,100.00
2023-03-14T05:08:28.263Z,100.00
2023-03-14T05:10:56.896Z,100.00
2023-03-14T05:13:23.934Z,100.00
2023-03-14T05:15:51.650Z,100.00
2023-03-14T05:18:19.944Z,100.00
2023-03-14T05:20:46.797Z,100.00
2023-03-14T05:23:13.315Z,100.00
2023-03-14T05:25:39.820Z,100.00
2023-03-14T05:28:06.409Z,100.00
2023-03-14T05:30:34.682Z,100.00
2023-03-14T05:33:01.332Z,100.00
2023-03-14T05:35:27.775Z,100.00
2023-03-14T05:37:54.256Z,100.00
2023-03-14T05:40:20.751Z,100.00
2023-03-14T05:42:47.164Z,100.00
2023-03-14T05:45:13.559Z,100.00
2023-03-14T05:47:40.049Z,100.00
2023-03-14T05:50:06.861Z,100.00
2023-03-14T05:52:33.448Z,100.00
2023-03-14T05:54:59.900Z,100.00
2023-03-14T05:57:26.496Z,100.00
2023-03-14T05:59:52.937Z,100.00
2023-03-14T06:02:19.489Z,100.00
2023-03-14T06:04:45.964Z,100.00
2023-03-14T06:07:12.409Z,100.00
2023-03-14T06:09:40.517Z,100.00
2023-03-14T06:12:07.196Z,100.00
2023-03-14T06:14:33.835Z,100.00
2023-03-14T06:17:00.295Z,100.00
2023-03-14T06:19:26.939Z,100.00
2023-03-14T06:21:53.382Z,100.00
2023-03-14T06:24:19.896Z,100.00
2023-03-14T06:26:46.427Z,100.00
2023-03-14T06:29:14.395Z,100.00
2023-03-14T06:31:40.890Z,100.00
2023-03-14T06:34:07.346Z,100.00
2023-03-14T06:36:33.837Z,100.00
2023-03-14T06:39:00.334Z,100.00
2023-03-14T06:41:27.717Z,100.00
2023-03-14T06:43:56.398Z,100.00
2023-03-14T06:46:23.170Z,100.00
2023-03-14T06:48:49.740Z,100.00
2023-03-14T06:51:16.159Z,100.00
2023-03-14T06:53:42.630Z,100.00
2023-03-14T06:56:09.751Z,100.00
2023-03-14T06:58:36.373Z,100.00
2023-03-14T07:01:03.021Z,100.00
2023-03-14T07:03:29.621Z,100.00
2023-03-14T07:05:56.115Z,100.00
2023-03-14T07:08:22.580Z,100.00
2023-03-14T07:10:49.137Z,100.00
2023-03-14T07:13:15.596Z,100.00
2023-03-14T07:15:42.084Z,100.00
2023-03-14T07:18:08.559Z,100.00
2023-03-14T07:20:35.073Z,100.00
2023-03-14T07:23:03.792Z,100.00
2023-03-14T07:25:30.644Z,100.00
2023-03-14T07:27:57.113Z,100.00
2023-03-14T07:30:23.763Z,100.00
2023-03-14T07:32:50.330Z,100.00
2023-03-14T07:35:16.896Z,100.00
2023-03-14T07:37:43.314Z,100.00
2023-03-14T07:40:11.568Z,100.00
2023-03-14T07:42:38.126Z,100.00
2023-03-14T07:45:05.052Z,100.00
2023-03-14T07:47:31.515Z,100.00
2023-03-14T07:49:57.996Z,100.00
2023-03-14T07:52:25.211Z,100.00
2023-03-14T07:54:51.645Z,100.00
2023-03-14T07:57:18.093Z,100.00
2023-03-14T07:59:44.878Z,100.00
2023-03-14T08:02:12.934Z,100.00
2023-03-14T08:04:40.302Z,100.00
2023-03-14T08:07:07.098Z,100.00
2023-03-14T08:09:33.653Z,100.00
2023-03-14T08:12:00.504Z,100.00
2023-03-14T08:14:27.194Z,100.00
2023-03-14T08:16:53.688Z,100.00
2023-03-14T08:19:20.173Z,100.00
2023-03-14T08:21:46.624Z,100.00
2023-03-14T08:24:13.098Z,100.00
2023-03-14T08:26:39.596Z,100.00
2023-03-14T08:29:06.125Z,100.00
2023-03-14T08:31:32.646Z,100.00
2023-03-14T08:34:00.354Z,100.00
2023-03-14T08:36:26.957Z,100.00
2023-03-14T08:38:53.459Z,100.00
2023-03-14T08:41:19.913Z,100.00
2023-03-14T08:43:46.591Z,100.00
2023-03-14T08:46:13.026Z,100.00
2023-03-14T08:48:39.453Z,100.00
2023-03-14T08:51:10.504Z,100.00
2023-03-14T08:53:37.215Z,100.00
2023-03-14T08:56:06.584Z,100.00
2023-03-14T08:58:36.786Z,100.00
2023-03-14T09:01:03.287Z,100.00
2023-03-14T09:03:29.792Z,100.00
2023-03-14T09:05:56.257Z,100.00
2023-03-14T09:08:22.704Z,100.00
2023-03-14T09:10:49.132Z,100.00
2023-03-14T09:13:15.598Z,100.00
2023-03-14T09:15:43.391Z,100.00
2023-03-14T09:18:09.997Z,100.00
2023-03-14T09:20:36.880Z,100.00
2023-03-14T09:23:03.383Z,100.00
2023-03-14T09:25:29.850Z,100.00
2023-03-14T09:27:56.280Z,100.00
2023-03-14T09:30:22.805Z,100.00
2023-03-14T09:32:49.413Z,100.00
2023-03-14T09:35:16.042Z,100.00
2023-03-14T09:37:42.793Z,100.00
2023-03-14T09:40:14.638Z,100.00
2023-03-14T09:42:41.804Z,100.00
2023-03-14T09:45:15.030Z,100.00
2023-03-14T09:47:52.639Z,100.00
2023-03-14T09:50:26.456Z,100.00
2023-03-14T09:52:57.952Z,100.00
2023-03-14T09:55:24.392Z,100.00
2023-03-14T09:57:55.850Z,100.00
2023-03-14T10:00:24.619Z,100.00
2023-03-14T10:02:53.606Z,100.00
2023-03-14T10:05:22.822Z,100.00
2023-03-14T10:07:49.724Z,100.00
2023-03-14T10:10:21.560Z,100.00
2023-03-14T10:12:56.073Z,100.00
2023-03-14T10:15:32.770Z,100.00
2023-03-14T10:18:01.787Z,99.19
2023-03-14T10:20:33.950Z,99.36
2023-03-14T10:23:21.703Z,98.20
2023-03-14T10:26:01.329Z,98.86
2023-03-14T10:28:34.528Z,98.65
2023-03-14T10:31:01.402Z,97.43
2023-03-14T10:33:38.360Z,97.18
2023-03-14T10:36:17.705Z,96.48
2023-03-14T10:38:44.648Z,95.09
2023-03-14T10:41:25.927Z,95.13
2023-03-14T10:43:55.139Z,93.98
2023-03-14T10:46:21.996Z,93.36
2023-03-14T10:48:50.601Z,93.95
2023-03-14T10:51:16.995Z,92.77
2023-03-14T10:53:47.467Z,90.02
2023-03-14T10:56:19.907Z,90.05
2023-03-14T10:58:48.900Z,89.65
2023-03-14T11:01:49.248Z,89.57
2023-03-14T11:04:37.433Z,86.36
2023-03-14T11:07:27.090Z,85.53
2023-03-14T11:10:11.232Z,85.95
2023-03-14T11:12:46.678Z,80.36
2023-03-14T11:15:42.393Z,77.96
2023-03-14T11:18:30.033Z,77.36
2023-03-14T11:21:14.152Z,73.72
2023-03-14T11:24:10.990Z,75.88
2023-03-14T11:26:37.439Z,76.79
2023-03-14T11:29:19.459Z,76.08
2023-03-14T11:31:46.276Z,77.88
2023-03-14T11:34:28.607Z,75.43
2023-03-14T11:37:01.579Z,75.33
2023-03-14T11:39:38.487Z,71.86
2023-03-14T11:42:05.860Z,71.51
2023-03-14T11:44:38.522Z,71.24
2023-03-14T11:47:21.762Z,69.26
2023-03-14T11:49:51.209Z,66.39
2023-03-14T11:52:27.027Z,65.15
2023-03-14T11:54:57.535Z,66.33
2023-03-14T11:57:24.062Z,66.68
2023-03-14T11:59:57.064Z,64.66
2023-03-14T12:02:41.656Z,62.28
2023-03-14T12:05:45.599Z,64.58
2023-03-14T12:08:11.977Z,62.21
2023-03-14T12:10:51.170Z,64.56
2023-03-14T12:13:18.230Z,64.18
2023-03-14T12:15:50.834Z,63.88
2023-03-14T12:18:20.037Z,64.68
2023-03-14T12:20:54.885Z,64.81
2023-03-14T12:23:21.596Z,65.09
2023-03-14T12:25:48.150Z,64.96
2023-03-14T12:28:23.084Z,65.36
2023-03-14T12:30:49.621Z,61.84
2023-03-14T12:33:18.904Z,62.76
2023-03-14T12:35:50.186Z,61.58
2023-03-14T12:38:22.598Z,61.56
2023-03-14T12:41:01.565Z,61.57
2023-03-14T12:43:30.471Z,63.11
2023-03-14T12:46:22.017Z,60.98
2023-03-14T12:48:50.462Z,61.62
2023-03-14T12:51:18.165Z,61.33
2023-03-14T12:54:14.879Z,59.95
2023-03-14T12:56:50.290Z,58.73
2023-03-14T12:59:43.481Z,56.68
2023-03-14T13:02:09.826Z,56.90
2023-03-14T13:04:48.765Z,56.81
2023-03-14T13:07:34.206Z,56.78
2023-03-14T13:10:19.111Z,56.91
2023-03-14T13:13:04.455Z,55.56
2023-03-14T13:15:32.712Z,55.96
2023-03-14T13:18:24.710Z,55.39
2023-03-14T13:20:56.452Z,55.06
2023-03-14T13:23:25.142Z,56.09
2023-03-14T13:25:52.006Z,55.70
2023-03-14T13:28:19.010Z,57.20
2023-03-14T13:30:48.258Z,58.88
2023-03-14T13:33:17.909Z,57.02
2023-03-14T13:35:47.486Z,58.61
2023-03-14T13:38:18.225Z,59.15
2023-03-14T13:40:46.254Z,60.12
2023-03-14T13:43:15.685Z,60.96
2023-03-14T13:46:04.642Z,61.15
2023-03-14T13:48:33.041Z,61.89
2023-03-14T13:51:04.574Z,61.88
2023-03-14T13:53:31.857Z,61.85
2023-03-14T13:56:02.481Z,62.05
2023-03-14T13:58:31.240Z,62.97
2023-03-14T14:01:04.505Z,62.73
2023-03-14T14:03:32.801Z,63.12
2023-03-14T14:06:01.432Z,61.95
2023-03-14T14:08:30.916Z,61.23
2023-03-14T14:11:02.775Z,62.10
2023-03-14T14:13:31.625Z,60.17
2023-03-14T14:16:01.165Z,61.05
2023-03-14T14:18:29.054Z,62.31
2023-03-14T14:20:56.055Z,60.96
2023-03-14T14:23:28.958Z,61.21
2023-03-14T14:25:59.436Z,62.22
2023-03-14T14:28:28.931Z,61.88
2023-03-14T14:31:02.130Z,60.83
2023-03-14T14:33:28.623Z,61.45
2023-03-14T14:35:59.565Z,59.75
2023-03-14T14:38:26.496Z,61.39
2023-03-14T14:40:56.314Z,61.15
2023-03-14T14:43:25.270Z,60.37
2023-03-14T14:45:53.949Z,60.64
2023-03-14T14:48:24.436Z,60.40
2023-03-14T14:50:50.793Z,58.79
2023-03-14T14:53:24.510Z,58.95
2023-03-14T14:55:53.073Z,59.47
2023-03-14T14:58:28.645Z,59.07
2023-03-14T15:01:08.348Z,58.68
2023-03-14T15:03:35.658Z,59.01
2023-03-14T15:06:03.016Z,60.04
2023-03-14T15:08:29.795Z,60.07
2023-03-14T15:10:57.452Z,60.95
2023-03-14T15:13:24.056Z,60.11
2023-03-14T15:15:59.072Z,61.05
2023-03-14T15:18:30.793Z,61.21
2023-03-14T15:20:57.481Z,62.02
2023-03-14T15:23:24.119Z,61.44
2023-03-14T15:25:57.704Z,61.48
2023-03-14T15:28:26.648Z,61.88
2023-03-14T15:30:55.074Z,60.78
2023-03-14T15:33:22.152Z,61.21
2023-03-14T15:35:49.749Z,60.57
2023-03-14T15:38:22.194Z,58.63
2023-03-14T15:40:51.466Z,60.36
2023-03-14T15:43:19.093Z,62.17
2023-03-14T15:45:45.706Z,58.52
2023-03-14T15:48:17.779Z,56.48
2023-03-14T15:50:44.494Z,57.30
2023-03-14T15:53:11.663Z,57.08
2023-03-14T15:55:38.387Z,58.04
2023-03-14T15:58:05.241Z,58.15
2023-03-14T16:00:32.157Z,58.37
2023-03-14T16:02:58.581Z,60.36
2023-03-14T16:05:25.051Z,61.02
2023-03-14T16:07:51.764Z,59.74
2023-03-14T16:10:18.230Z,60.31
2023-03-14T16:12:44.689Z,60.86
2023-03-14T16:15:11.569Z,61.27
2023-03-14T16:17:38.746Z,62.28
2023-03-14T16:20:06.044Z,62.36
2023-03-14T16:22:35.948Z,62.36
2023-03-14T16:25:07.212Z,62.32
2023-03-14T16:27:33.713Z,62.20
2023-03-14T16:30:00.497Z,63.40
2023-03-14T16:32:27.574Z,62.68
2023-03-14T16:34:54.256Z,62.83
2023-03-14T16:37:21.777Z,64.01
2023-03-14T16:40:11.021Z,64.67
2023-03-14T16:42:46.761Z,68.67
2023-03-14T16:45:21.822Z,71.59
2023-03-14T16:47:51.289Z,73.25
2023-03-14T16:50:17.740Z,74.58
2023-03-14T16:52:46.927Z,77.58
2023-03-14T16:55:13.484Z,80.18
2023-03-14T16:57:39.992Z,78.07
2023-03-14T17:00:09.521Z,77.36
2023-03-14T17:02:38.119Z,77.89
2023-03-14T17:05:05.164Z,77.96
2023-03-14T17:07:31.606Z,77.55
2023-03-14T17:09:58.069Z,79.20
2023-03-14T17:12:24.597Z,82.67
2023-03-14T17:14:51.043Z,83.06
2023-03-14T17:17:17.499Z,83.10
2023-03-14T17:19:43.953Z,85.22
2023-03-14T17:22:22.170Z,85.69
2023-03-14T17:24:49.916Z,85.91
2023-03-14T17:27:19.986Z,85.24
2023-03-14T17:29:47.356Z,86.19
2023-03-14T17:32:15.245Z,87.24
2023-03-14T17:34:41.710Z,86.25
2023-03-14T17:37:08.233Z,84.93
2023-03-14T17:39:35.013Z,85.93
2023-03-14T17:42:01.464Z,86.17
2023-03-14T17:44:28.018Z,84.80
2023-03-14T17:46:56.025Z,86.43
2023-03-14T17:49:22.507Z,85.25
2023-03-14T17:51:48.956Z,87.02
2023-03-14T17:54:15.442Z,85.93
2023-03-14T17:56:43.766Z,87.42
2023-03-14T17:59:13.650Z,87.94
2023-03-14T18:01:41.542Z,86.68
2023-03-14T18:04:08.260Z,86.92
2023-03-14T18:06:35.467Z,85.03
2023-03-14T18:09:04.484Z,85.76
2023-03-14T18:11:31.144Z,85.48
2023-03-14T18:13:57.669Z,84.90
2023-03-14T18:16:24.259Z,84.45
2023-03-14T18:18:50.812Z,84.10
2023-03-14T18:21:18.402Z,84.52
2023-03-14T18:23:44.970Z,85.06
2023-03-14T18:26:11.424Z,85.67
2023-03-14T18:28:37.904Z,86.12
2023-03-14T18:31:17.131Z,85.51
2023-03-14T18:33:45.456Z,86.72
2023-03-14T18:36:17.802Z,86.28
2023-03-14T18:38:46.603Z,87.66
2023-03-14T18:41:14.781Z,89.15
2023-03-14T18:43:43.634Z,90.78
2023-03-14T18:46:13.475Z,91.44
2023-03-14T18:48:42.308Z,92.53
2023-03-14T18:51:10.130Z,91.48
2023-03-14T18:53:36.690Z,92.05
2023-03-14T18:56:03.177Z,91.35
2023-03-14T18:58:30.905Z,92.26
2023-03-14T19:00:59.569Z,92.65
2023-03-14T19:03:26.568Z,91.61
2023-03-14T19:05:54.024Z,91.80
2023-03-14T19:08:23.417Z,91.71
2023-03-14T19:10:51.014Z,92.18
2023-03-14T19:13:17.864Z,91.22
2023-03-14T19:15:44.721Z,90.47
2023-03-14T19:18:11.273Z,92.14
2023-03-14T19:20:38.705Z,91.83
2023-03-14T19:23:05.236Z,92.02
2023-03-14T19:25:31.707Z,91.39
2023-03-14T19:27:58.138Z,92.13
2023-03-14T19:30:24.705Z,91.84
2023-03-14T19:32:51.425Z,92.69
2023-03-14T19:35:17.968Z,90.87
2023-03-14T19:37:45.462Z,91.83
2023-03-14T19:40:13.020Z,92.39
2023-03-14T19:42:39.666Z,92.10
2023-03-14T19:45:06.711Z,91.99
2023-03-14T19:47:33.140Z,91.79
2023-03-14T19:49:59.710Z,93.12
2023-03-14T19:52:26.256Z,92.50
2023-03-14T19:54:53.187Z,92.88
2023-03-14T19:57:19.590Z,92.45
2023-03-14T19:59:46.115Z,92.60
2023-03-14T20:02:16.522Z,92.07
2023-03-14T20:04:46.479Z,91.86
2023-03-14T20:07:13.661Z,90.77
2023-03-14T20:09:40.458Z,90.14
2023-03-14T20:12:07.384Z,88.75
2023-03-14T20:14:34.292Z,89.44
2023-03-14T20:17:00.926Z,90.16
2023-03-14T20:19:27.810Z,89.47
2023-03-14T20:21:54.312Z,86.91
2023-03-14T20:24:20.839Z,88.69
2023-03-14T20:26:47.328Z,88.08
2023-03-14T20:29:16.404Z,89.14
2023-03-14T20:31:43.048Z,89.43
2023-03-14T20:34:09.579Z,88.31
2023-03-14T20:36:36.228Z,86.74
2023-03-14T20:39:02.785Z,87.84
2023-03-14T20:41:29.338Z,88.02
2023-03-14T20:43:55.796Z,87.36
2023-03-14T20:46:22.356Z,86.57
2023-03-14T20:48:48.856Z,89.00
2023-03-14T20:51:15.343Z,89.29
2023-03-14T20:53:42.342Z,88.36
2023-03-14T20:56:08.992Z,88.42
2023-03-14T20:58:35.544Z,88.37
2023-03-14T21:01:04.974Z,88.91
2023-03-14T21:03:31.475Z,88.65
2023-03-14T21:05:58.716Z,88.94
2023-03-14T21:08:25.796Z,89.67
2023-03-14T21:10:54.679Z,89.01
2023-03-14T21:13:21.249Z,89.70
2023-03-14T21:15:47.847Z,89.88
2023-03-14T21:18:14.367Z,90.28
2023-03-14T21:20:42.125Z,90.93
2023-03-14T21:23:09.259Z,91.27
2023-03-14T21:25:36.165Z,91.50
2023-03-14T21:28:04.267Z,90.97
2023-03-14T21:30:35.295Z,91.99
2023-03-14T21:33:04.387Z,92.04
2023-03-14T21:35:30.837Z,91.39
2023-03-14T21:37:57.313Z,91.68
2023-03-14T21:40:24.526Z,92.50
2023-03-14T21:42:54.343Z,91.67
2023-03-14T21:45:26.008Z,92.29
2023-03-14T21:47:59.260Z,92.17
2023-03-14T21:50:26.465Z,92.17
2023-03-14T21:52:56.867Z,91.38
2023-03-14T21:55:25.321Z,92.45
2023-03-14T21:57:54.162Z,92.83
2023-03-14T22:00:21.544Z,93.11
2023-03-14T22:03:08.475Z,92.74
2023-03-14T22:05:36.238Z,92.55
2023-03-14T22:08:02.693Z,92.75
2023-03-14T22:10:29.096Z,92.39
2023-03-14T22:12:57.712Z,92.27
2023-03-14T22:15:24.186Z,93.22
2023-03-14T22:17:50.839Z,93.76
2023-03-14T22:20:20.540Z,92.95
2023-03-14T22:22:46.998Z,92.44
2023-03-14T22:25:13.443Z,93.03
2023-03-14T22:27:40.088Z,93.04
2023-03-14T22:30:07.132Z,93.03
2023-03-14T22:32:33.932Z,92.73
2023-03-14T22:35:00.573Z,92.38
2023-03-14T22:37:27.049Z,93.13
2023-03-14T22:39:53.543Z,92.95
2023-03-14T22:42:20.193Z,93.24
2023-03-14T22:44:53.575Z,92.59
2023-03-14T22:47:20.259Z,92.87
2023-03-14T22:49:49.762Z,93.37
2023-03-14T22:52:16.316Z,93.53
2023-03-14T22:54:42.876Z,93.47
2023-03-14T22:57:09.435Z,92.91
2023-03-14T22:59:35.917Z,92.19
2023-03-14T23:02:02.396Z,92.21
2023-03-14T23:04:28.962Z,92.55
2023-03-14T23:06:55.400Z,92.58
2023-03-14T23:09:21.867Z,92.74
2023-03-14T23:11:48.320Z,92.92
2023-03-14T23:14:15.303Z,93.60
2023-03-14T23:16:41.822Z,92.85
2023-03-14T23:19:09.875Z,93.50
2023-03-14T23:21:36.469Z,93.57
2023-03-14T23:24:05.719Z,93.18
2023-03-14T23:26:35.427Z,93.03
2023-03-14T23:29:05.400Z,93.40
2023-03-14T23:31:32.666Z,94.24
2023-03-14T23:33:59.224Z,93.50
2023-03-14T23:36:25.727Z,93.29
2023-03-14T23:38:52.264Z,93.09
2023-03-14T23:41:18.683Z,92.86
2023-03-14T23:43:45.655Z,93.08
2023-03-14T23:46:13.050Z,93.74
2023-03-14T23:48:39.910Z,94.42
2023-03-14T23:51:08.498Z,94.66
2023-03-14T23:53:34.972Z,93.91
2023-03-14T23:56:01.751Z,94.43
2023-03-14T23:58:28.649Z,94.54
